メインページ
METAR-TAF:

METAR-TAF

空港 :

ポンタ・デルガダ空港

ポンタ・デルガダ, アゾレス諸島, ポルトガル

緯度: 37-44N, 経度: 025-42W, 海抜: 71m

現時点の気象観測

当レポートは15分前の05:30(UTC)に作成
北東の風 4kt
気温 13°C
湿度 82%
気圧 1027 hPa
視程10km以上
高度1600ftの雲はほとんどない
高度3000ftの千切れ雲あり

METAR: LPPD 210530Z 04004KT 9999 FEW016 BKN030 13/10 Q1027

時間: 04:45 (05:45 UTC)

予報

当レポートは45分前の05:00(UTC)に作成
予報は21日の 06時(UTC)から 22日の 06時(UTC)まで有効
変向風 5kt
視程10km以上
高度1500ftの雲はほとんどない
高度3000ftの千切れ雲あり
21日の 06時(UTC)から 22日の 06時(UTC)まで一時的に
高度1800ftの雲は散在している

TAF: LPPD 210500Z 2106/2206 VRB05KT 9999 FEW015 BKN030 TEMPO 2106/2206 SCT018

4,000以上の空港の気象観測と天気予報(METAR報とTAF報)

利用可能な観測所は地図上に黄色い丸と赤い丸で示す。

丸の上にカーソルを重ねると観測所名を参照できる。

次にクリックすると気象観測と天気予報を参照できる。

マップの切り替え:黒色「×」印の緑ボタンをクリックして拡大、「-」印の緑ボタンをクリックして縮小、緑色の三角印をクリックして隣りの地図に切り替え


METAR-TAF: